Time;durP1;ratioP1;P1;durP2;ratioP2;P2;SDS_P1;SDS_P2;PMS_P1;PMS_P2;Temp;Humidity;BMP_temperature;BMP_pressure;BME280_temperature;BME280_humidity;BME280_pressure;Samples;Min_cycle;Max_cycle;Signal;HPM_P1;HPM_P2
2023/07/11 00:00:44;;;;;;;3.00;1.15;;;22.00;70.80;;;;;;5033666;28;20429;-86
2023/07/11 00:03:11;;;;;;;3.55;1.50;;;22.00;70.90;;;;;;5032622;28;20083;-86
2023/07/11 00:05:37;;;;;;;4.30;1.30;;;21.90;71.00;;;;;;5032667;28;20029;-87
2023/07/11 00:08:03;;;;;;;7.07;1.20;;;21.90;71.10;;;;;;5032490;28;20022;-86
2023/07/11 00:10:29;;;;;;;7.57;1.92;;;21.90;71.20;;;;;;5032478;28;20036;-87
2023/07/11 00:12:54;;;;;;;3.35;1.48;;;21.90;71.30;;;;;;5032607;28;20440;-87
2023/07/11 00:15:20;;;;;;;6.45;1.42;;;21.80;71.30;;;;;;5032918;28;20544;-87
2023/07/11 00:17:48;;;;;;;5.63;1.75;;;21.80;71.40;;;;;;5032304;28;20371;-86
2023/07/11 00:20:14;;;;;;;3.88;1.45;;;21.70;71.40;;;;;;5032443;28;20034;-87
2023/07/11 00:22:42;;;;;;;5.15;1.35;;;21.70;71.40;;;;;;5032352;28;20062;-87
2023/07/11 00:25:09;;;;;;;3.08;0.90;;;21.70;71.60;;;;;;5015875;28;20025;-87
2023/07/11 00:27:35;;;;;;;3.35;1.25;;;21.70;71.70;;;;;;5032467;28;20026;-87
2023/07/11 00:30:01;;;;;;;4.22;1.40;;;21.60;71.90;;;;;;5015900;28;20033;-87
2023/07/11 00:32:27;;;;;;;5.03;1.67;;;21.60;72.00;;;;;;5032218;28;20044;-86
2023/07/11 00:34:52;;;;;;;3.55;1.30;;;21.60;72.00;;;;;;5031412;28;20038;-87
2023/07/11 00:37:18;;;;;;;3.80;1.23;;;21.60;72.10;;;;;;5015589;28;20029;-87
2023/07/11 00:39:44;;;;;;;4.32;1.05;;;21.50;72.10;;;;;;5015603;28;20048;-87
2023/07/11 00:42:10;;;;;;;5.22;1.10;;;21.50;72.20;;;;;;5032308;28;20543;-87
2023/07/11 00:44:53;;;;;;;4.78;1.17;;;21.50;73.00;;;;;;5032428;28;20018;-87
2023/07/11 00:47:21;;;;;;;3.88;1.10;;;21.50;72.50;;;;;;5032153;28;20033;-87
2023/07/11 00:49:49;;;;;;;3.97;1.30;;;21.40;72.50;;;;;;5032257;28;20032;-87
2023/07/11 00:52:16;;;;;;;6.30;1.42;;;21.40;72.60;;;;;;5015904;28;20029;-87
2023/07/11 00:54:47;;;;;;;5.10;1.60;;;21.40;72.70;;;;;;5032336;28;20025;-87
2023/07/11 00:57:14;;;;;;;5.43;1.50;;;21.40;72.80;;;;;;5034737;28;20021;-80
2023/07/11 00:59:40;;;;;;;5.05;1.27;;;21.40;72.90;;;;;;5032914;28;20029;-80
2023/07/11 01:02:17;;;;;;;3.83;1.05;;;21.40;73.00;;;;;;5015458;28;20036;-78
2023/07/11 01:04:43;;;;;;;4.57;1.40;;;21.30;73.00;;;;;;5031799;28;20177;-80
2023/07/11 01:07:10;;;;;;;4.82;1.15;;;21.30;73.00;;;;;;5031709;28;20047;-79
2023/07/11 01:09:37;;;;;;;4.63;1.38;;;21.30;73.20;;;;;;5015180;28;20030;-79
2023/07/11 01:12:08;;;;;;;4.72;1.40;;;21.30;73.30;;;;;;5031384;28;20056;-79
2023/07/11 01:14:35;;;;;;;4.57;1.27;;;21.20;73.30;;;;;;5015372;28;20029;-79
2023/07/11 01:17:01;;;;;;;4.22;0.88;;;21.20;73.30;;;;;;5031810;28;20032;-79
2023/07/11 01:19:26;;;;;;;6.50;1.40;;;21.20;73.40;;;;;;5031564;28;20029;-79
2023/07/11 01:21:53;;;;;;;6.80;1.35;;;21.10;73.30;;;;;;5031597;28;20056;-79
2023/07/11 01:24:18;;;;;;;5.13;1.33;;;21.10;73.40;;;;;;5031604;28;20109;-79
2023/07/11 01:26:44;;;;;;;7.50;1.20;;;21.10;73.50;;;;;;5031819;28;20108;-79
2023/07/11 01:29:10;;;;;;;5.63;1.13;;;21.10;73.50;;;;;;5015203;28;20041;-79
2023/07/11 01:31:36;;;;;;;4.32;1.55;;;21.10;73.60;;;;;;5031901;28;20022;-80
2023/07/11 01:34:06;;;;;;;6.63;1.45;;;21.10;73.70;;;;;;5031514;28;20040;-79
2023/07/11 01:36:33;;;;;;;6.28;1.30;;;21.10;73.80;;;;;;5031467;28;20021;-79
2023/07/11 01:38:59;;;;;;;5.72;1.30;;;21.00;73.80;;;;;;5015159;28;20030;-79
2023/07/11 01:41:25;;;;;;;2.92;1.30;;;21.00;73.90;;;;;;5031984;28;20397;-79
2023/07/11 01:43:53;;;;;;;6.32;1.20;;;20.90;74.00;;;;;;5031469;28;20462;-79
2023/07/11 01:46:18;;;;;;;5.00;1.40;;;20.90;74.00;;;;;;5015651;28;20425;-79
2023/07/11 01:48:44;;;;;;;6.18;1.05;;;20.90;74.10;;;;;;5035087;28;20076;-79
2023/07/11 01:51:10;;;;;;;5.28;1.40;;;20.90;74.20;;;;;;5018435;28;20393;-79
2023/07/11 01:53:35;;;;;;;5.68;1.40;;;20.90;74.30;;;;;;5034960;28;20025;-79
2023/07/11 01:56:03;;;;;;;4.07;1.33;;;20.80;74.90;;;;;;5018432;28;20088;-79
2023/07/11 01:58:30;;;;;;;5.18;1.42;;;20.80;75.50;;;;;;5048536;28;20108;-79
2023/07/11 02:00:57;;;;;;;4.03;1.27;;;20.80;76.10;;;;;;5054412;28;20053;-79
2023/07/11 02:03:23;;;;;;;6.93;1.48;;;20.70;76.40;;;;;;5055281;28;20025;-79
2023/07/11 02:05:49;;;;;;;5.30;1.45;;;20.70;76.60;;;;;;5054142;28;20017;-79
2023/07/11 02:08:14;;;;;;;5.05;1.63;;;20.60;76.80;;;;;;5037354;28;20496;-79
2023/07/11 02:10:40;;;;;;;6.82;1.60;;;20.60;77.00;;;;;;5037985;28;20401;-80
2023/07/11 02:13:06;;;;;;;5.60;1.58;;;20.60;77.30;;;;;;5037317;28;20029;-80
2023/07/11 02:15:32;;;;;;;7.82;1.40;;;20.60;77.70;;;;;;5054485;28;20021;-80
2023/07/11 02:17:58;;;;;;;5.38;1.35;;;20.50;77.60;;;;;;5037775;28;20140;-79
2023/07/11 02:20:23;;;;;;;7.63;1.92;;;20.50;77.60;;;;;;5021269;28;20061;-80
2023/07/11 02:22:49;;;;;;;4.28;1.55;;;20.40;77.60;;;;;;5037778;28;20106;-79
2023/07/11 02:25:15;;;;;;;5.78;1.45;;;20.40;77.70;;;;;;5037716;28;20029;-79
2023/07/11 02:27:40;;;;;;;6.38;1.60;;;20.40;78.40;;;;;;5021252;28;20021;-80
2023/07/11 02:30:07;;;;;;;5.28;1.73;;;20.30;78.00;;;;;;5021510;28;20057;-79
2023/07/11 02:32:32;;;;;;;5.88;1.30;;;20.30;78.10;;;;;;5021158;28;20473;-79
2023/07/11 02:34:58;;;;;;;3.97;1.40;;;20.30;78.20;;;;;;5037696;28;20033;-79
2023/07/11 02:37:24;;;;;;;5.10;1.45;;;20.30;78.40;;;;;;5054466;28;20495;-79
2023/07/11 02:39:49;;;;;;;6.45;1.70;;;20.30;78.50;;;;;;5055204;28;20033;-79
2023/07/11 02:42:15;;;;;;;6.28;1.50;;;20.20;79.10;;;;;;5021067;28;20033;-79
2023/07/11 02:44:41;;;;;;;5.15;1.33;;;20.20;78.60;;;;;;5021031;28;20035;-79
2023/07/11 02:47:06;;;;;;;5.15;1.52;;;20.20;78.70;;;;;;5037705;28;20029;-78
2023/07/11 02:49:32;;;;;;;3.67;1.40;;;20.20;78.90;;;;;;5053884;28;20463;-78
2023/07/11 02:51:57;;;;;;;5.15;1.65;;;20.20;78.90;;;;;;5020840;28;20029;-79
2023/07/11 02:54:23;;;;;;;4.82;1.27;;;20.10;78.90;;;;;;5037213;28;20414;-80
2023/07/11 02:56:49;;;;;;;5.78;1.58;;;20.10;79.00;;;;;;5020708;28;20032;-80
2023/07/11 02:59:14;;;;;;;6.88;1.50;;;20.10;79.00;;;;;;5036023;28;20029;-80
2023/07/11 03:01:40;;;;;;;3.08;1.40;;;20.10;79.10;;;;;;5036813;28;20052;-79
2023/07/11 03:04:06;;;;;;;3.90;1.40;;;20.00;79.10;;;;;;5036940;28;20028;-78
2023/07/11 03:06:31;;;;;;;4.35;1.67;;;20.00;79.20;;;;;;5020526;28;20029;-78
2023/07/11 03:08:57;;;;;;;8.75;2.00;;;20.00;79.30;;;;;;5037536;28;20346;-78
2023/07/11 03:11:23;;;;;;;4.82;1.40;;;20.00;79.40;;;;;;5037022;28;20040;-79
2023/07/11 03:13:49;;;;;;;4.60;1.40;;;19.90;79.40;;;;;;5020376;28;20463;-79
2023/07/11 03:16:14;;;;;;;6.10;1.55;;;19.90;79.50;;;;;;5036812;28;20484;-79
2023/07/11 03:18:40;;;;;;;5.32;1.10;;;19.90;79.70;;;;;;5053328;28;20036;-79
2023/07/11 03:21:06;;;;;;;5.85;1.42;;;19.90;79.70;;;;;;5036634;28;20053;-79
2023/07/11 03:23:31;;;;;;;6.35;1.38;;;19.90;79.80;;;;;;5036522;28;20027;-79
2023/07/11 03:25:57;;;;;;;5.70;1.42;;;19.80;80.00;;;;;;5036559;28;20378;-79
2023/07/11 03:28:23;;;;;;;4.60;1.38;;;19.80;80.10;;;;;;5053026;28;20033;-79
2023/07/11 03:30:51;;;;;;;7.85;1.90;;;19.80;80.20;;;;;;5053115;28;20040;-79
2023/07/11 03:33:17;;;;;;;5.45;1.50;;;19.80;80.30;;;;;;5020489;28;20052;-79
2023/07/11 03:35:48;;;;;;;3.63;1.67;;;19.80;80.50;;;;;;5036423;28;20059;-79
2023/07/11 03:38:14;;;;;;;5.63;1.60;;;19.70;80.70;;;;;;5036200;28;20051;-79
2023/07/11 03:40:39;;;;;;;5.15;1.58;;;19.70;80.80;;;;;;5019871;28;20021;-79
2023/07/11 03:43:05;;;;;;;6.07;1.52;;;19.70;81.00;;;;;;5053016;28;20051;-79
2023/07/11 03:45:30;;;;;;;5.93;1.58;;;19.70;81.10;;;;;;5036155;28;20473;-79
2023/07/11 03:47:56;;;;;;;7.13;1.58;;;19.60;81.30;;;;;;5052526;28;20036;-79
2023/07/11 03:50:22;;;;;;;8.27;1.88;;;19.60;81.40;;;;;;5052668;28;20027;-79
2023/07/11 03:52:47;;;;;;;6.18;1.40;;;19.60;81.60;;;;;;5019564;28;20025;-79
2023/07/11 03:55:13;;;;;;;4.65;1.67;;;19.60;81.70;;;;;;5019609;28;20025;-79
2023/07/11 03:57:39;;;;;;;3.47;1.20;;;19.60;81.90;;;;;;5019606;28;20428;-79
2023/07/11 04:00:05;;;;;;;8.05;1.98;;;19.60;82.00;;;;;;5035901;28;20044;-79
2023/07/11 04:02:31;;;;;;;4.80;1.45;;;19.50;82.00;;;;;;5052440;28;20025;-79
2023/07/11 04:04:56;;;;;;;9.32;2.05;;;19.50;82.70;;;;;;5019454;28;20074;-79
2023/07/11 04:07:22;;;;;;;7.90;1.58;;;19.50;82.10;;;;;;5012146;28;20025;-79
2023/07/11 04:09:48;;;;;;;5.97;1.48;;;19.50;82.20;;;;;;5015411;28;20441;-79
2023/07/11 04:12:13;;;;;;;8.73;1.75;;;19.50;82.30;;;;;;5032172;28;20128;-79
2023/07/11 04:14:39;;;;;;;4.07;1.27;;;19.50;82.50;;;;;;4999641;28;20026;-79
2023/07/11 04:17:05;;;;;;;5.70;1.77;;;19.50;82.50;;;;;;5032211;28;20025;-79
2023/07/11 04:19:30;;;;;;;7.63;1.67;;;19.40;82.50;;;;;;5015784;28;20048;-79
2023/07/11 04:21:56;;;;;;;5.85;1.38;;;19.50;82.50;;;;;;5032205;28;20095;-79
2023/07/11 04:24:22;;;;;;;9.93;2.15;;;19.40;82.50;;;;;;5032281;28;20540;-79
2023/07/11 04:26:47;;;;;;;7.15;1.58;;;19.50;82.50;;;;;;5032252;28;20531;-80
2023/07/11 04:29:13;;;;;;;7.40;2.20;;;19.40;82.60;;;;;;4999340;28;20263;-79
2023/07/11 04:31:38;;;;;;;6.38;1.73;;;19.50;82.70;;;;;;5032211;28;20036;-79
2023/07/11 04:34:05;;;;;;;5.70;1.70;;;19.50;82.80;;;;;;5032132;28;20060;-79
2023/07/11 04:36:31;;;;;;;6.65;1.60;;;19.50;82.70;;;;;;4999604;28;20512;-79
2023/07/11 04:38:57;;;;;;;5.57;1.92;;;19.50;82.70;;;;;;5015378;28;20029;-79
2023/07/11 04:41:22;;;;;;;5.93;1.80;;;19.50;82.80;;;;;;5032028;28;20017;-78
2023/07/11 04:43:48;;;;;;;9.70;1.60;;;19.50;82.90;;;;;;5015710;28;20040;-79
2023/07/11 04:46:13;;;;;;;4.25;1.73;;;19.60;82.90;;;;;;5030914;28;20036;-79
2023/07/11 04:48:39;;;;;;;4.65;1.90;;;19.50;82.90;;;;;;5018604;28;20029;-78
2023/07/11 04:51:07;;;;;;;5.70;1.80;;;19.60;83.00;;;;;;5034833;28;20075;-76
2023/07/11 04:53:34;;;;;;;4.47;1.63;;;19.60;83.00;;;;;;5053166;28;20029;-76
2023/07/11 04:56:05;;;;;;;6.15;2.05;;;19.60;83.70;;;;;;5051603;28;20463;-76
2023/07/11 04:58:33;;;;;;;6.07;2.20;;;19.60;83.10;;;;;;5050468;28;20048;-76
2023/07/11 05:01:00;;;;;;;5.07;1.92;;;19.60;83.10;;;;;;5052225;28;20625;-76
2023/07/11 05:03:26;;;;;;;9.77;2.05;;;19.60;83.20;;;;;;5050387;28;20547;-76
2023/07/11 05:05:51;;;;;;;4.05;1.63;;;19.70;83.20;;;;;;5051383;28;20025;-76
2023/07/11 05:08:17;;;;;;;5.40;1.65;;;19.70;83.10;;;;;;5017461;28;20028;-77
2023/07/11 05:10:58;;;;;;;4.57;1.65;;;19.70;83.10;;;;;;5052176;28;20342;-76
2023/07/11 05:13:23;;;;;;;6.38;2.35;;;19.80;83.10;;;;;;5051932;28;20036;-76
2023/07/11 05:15:49;;;;;;;5.25;2.10;;;19.80;83.00;;;;;;5047843;28;20086;-76
2023/07/11 05:18:15;;;;;;;7.43;1.92;;;19.90;83.70;;;;;;5043589;28;20048;-75
2023/07/11 05:20:40;;;;;;;6.68;2.00;;;19.90;82.90;;;;;;5046175;28;20519;-75
2023/07/11 05:23:06;;;;;;;4.30;1.65;;;19.90;83.50;;;;;;5031397;28;20029;-76
2023/07/11 05:25:35;;;;;;;5.63;1.70;;;20.00;82.80;;;;;;5045764;28;20034;-75
2023/07/11 05:28:01;;;;;;;8.63;1.73;;;20.10;82.70;;;;;;5045349;28;20048;-76
2023/07/11 05:30:27;;;;;;;5.85;2.03;;;20.10;82.70;;;;;;5039037;28;20026;-76
2023/07/11 05:32:55;;;;;;;8.82;1.95;;;20.10;82.50;;;;;;5044624;28;20044;-75
2023/07/11 05:35:20;;;;;;;6.60;2.50;;;20.20;82.30;;;;;;5027683;28;20024;-75
2023/07/11 05:37:46;;;;;;;6.65;2.17;;;20.20;82.70;;;;;;5043960;28;20037;-75
2023/07/11 05:40:11;;;;;;;5.20;2.00;;;20.30;81.80;;;;;;5030556;28;20033;-79
2023/07/11 05:42:37;;;;;;;7.70;2.60;;;20.40;81.50;;;;;;5056291;28;20135;-79
2023/07/11 05:45:03;;;;;;;5.40;1.90;;;20.40;81.30;;;;;;5056485;28;20409;-80
2023/07/11 05:47:29;;;;;;;5.88;2.13;;;20.50;81.00;;;;;;5054990;28;20104;-81
2023/07/11 05:49:54;;;;;;;10.25;2.55;;;20.50;80.70;;;;;;5054834;28;20421;-79
2023/07/11 05:52:20;;;;;;;6.57;2.15;;;20.50;80.50;;;;;;5038236;28;20028;-80
2023/07/11 05:54:46;;;;;;;7.70;1.95;;;20.60;80.30;;;;;;5056047;28;20061;-79
2023/07/11 05:57:11;;;;;;;7.47;1.75;;;20.60;80.10;;;;;;5056197;28;20028;-80
2023/07/11 05:59:37;;;;;;;7.43;2.03;;;20.70;79.70;;;;;;5054774;28;20762;-78
2023/07/11 06:02:03;;;;;;;8.88;2.38;;;20.70;79.50;;;;;;5036463;28;20077;-77
2023/07/11 06:04:28;;;;;;;6.15;1.60;;;20.80;79.40;;;;;;5035824;28;20025;-79
2023/07/11 06:06:54;;;;;;;6.68;1.77;;;20.80;79.40;;;;;;5017904;28;20075;-79
2023/07/11 06:09:20;;;;;;;4.75;1.70;;;20.80;79.20;;;;;;5034343;28;20036;-79
2023/07/11 06:11:47;;;;;;;5.70;1.58;;;20.80;79.10;;;;;;5035579;28;20096;-80
2023/07/11 06:14:14;;;;;;;7.93;1.55;;;20.90;79.00;;;;;;5035438;28;20428;-79
2023/07/11 06:16:41;;;;;;;6.15;1.60;;;20.90;78.70;;;;;;5033762;28;20040;-78
2023/07/11 06:19:06;;;;;;;5.30;1.27;;;21.00;78.50;;;;;;5034272;28;20041;-79
2023/07/11 06:21:33;;;;;;;8.95;2.17;;;21.00;78.20;;;;;;5032812;28;20076;-79
2023/07/11 06:23:58;;;;;;;5.57;1.20;;;21.00;78.00;;;;;;5035015;28;20356;-80
2023/07/11 06:26:24;;;;;;;4.63;1.60;;;21.10;77.80;;;;;;5034658;28;20129;-80
2023/07/11 06:28:50;;;;;;;5.32;1.50;;;21.10;77.50;;;;;;5033992;28;20026;-79
2023/07/11 06:31:16;;;;;;;6.25;1.20;;;21.20;77.50;;;;;;5017553;28;20477;-79
2023/07/11 06:33:42;;;;;;;4.85;1.25;;;21.30;77.40;;;;;;5033765;28;20044;-79
2023/07/11 06:36:08;;;;;;;4.13;1.10;;;21.30;77.30;;;;;;5035616;28;20033;-79
2023/07/11 06:38:35;;;;;;;5.93;1.55;;;21.30;77.30;;;;;;5051015;28;20045;-79
2023/07/11 06:41:01;;;;;;;3.38;1.20;;;21.40;77.20;;;;;;5054978;28;20028;-79
2023/07/11 06:43:28;;;;;;;4.68;1.27;;;21.50;77.80;;;;;;5055282;28;20028;-80
2023/07/11 06:45:56;;;;;;;7.93;1.50;;;21.50;76.80;;;;;;5055044;28;20052;-79
2023/07/11 06:48:24;;;;;;;7.30;1.77;;;21.60;76.60;;;;;;5055344;28;20037;-78
2023/07/11 06:50:53;;;;;;;5.90;1.90;;;21.60;77.00;;;;;;5053805;28;20036;-79
2023/07/11 06:53:20;;;;;;;3.92;1.75;;;21.70;76.10;;;;;;5054929;28;20029;-80
2023/07/11 06:55:47;;;;;;;5.88;1.83;;;21.70;76.00;;;;;;5053606;28;20120;-79
2023/07/11 06:58:13;;;;;;;3.85;1.90;;;21.80;75.90;;;;;;5053763;28;20032;-79
2023/07/11 07:00:39;;;;;;;5.03;1.77;;;21.90;75.90;;;;;;5055042;28;20094;-79
2023/07/11 07:03:07;;;;;;;5.40;2.00;;;21.90;75.80;;;;;;5036910;28;20021;-79
2023/07/11 07:05:33;;;;;;;4.93;1.95;;;22.00;75.60;;;;;;5037240;28;20059;-79
2023/07/11 07:07:58;;;;;;;7.05;1.95;;;22.00;75.50;;;;;;5055132;28;20029;-78
2023/07/11 07:10:24;;;;;;;6.70;1.67;;;22.00;75.40;;;;;;5054878;28;20096;-78
2023/07/11 07:12:50;;;;;;;7.30;2.15;;;22.10;75.40;;;;;;5054721;28;20048;-78
2023/07/11 07:15:15;;;;;;;8.43;2.05;;;22.10;75.30;;;;;;5036765;28;20092;-79
2023/07/11 07:17:41;;;;;;;8.55;1.95;;;22.20;75.30;;;;;;5037008;28;20037;-78
2023/07/11 07:20:07;;;;;;;5.32;1.70;;;22.20;75.30;;;;;;5053148;28;20021;-80
2023/07/11 07:22:33;;;;;;;7.38;2.28;;;22.20;75.20;;;;;;5053365;28;20021;-79
2023/07/11 07:24:59;;;;;;;6.63;2.17;;;22.30;75.30;;;;;;5053099;28;20032;-80
2023/07/11 07:27:24;;;;;;;7.03;1.73;;;22.30;75.20;;;;;;5054296;28;20037;-79
2023/07/11 07:29:50;;;;;;;4.72;1.75;;;22.30;75.30;;;;;;5054578;28;20037;-80
2023/07/11 07:32:15;;;;;;;4.90;1.60;;;22.40;75.40;;;;;;5036343;28;20174;-75
2023/07/11 07:34:41;;;;;;;5.57;1.60;;;22.50;75.40;;;;;;5053235;28;20063;-75
2023/07/11 07:37:07;;;;;;;5.07;1.95;;;22.50;75.20;;;;;;5036280;28;20043;-75
2023/07/11 07:39:32;;;;;;;3.92;1.33;;;22.60;75.00;;;;;;5054126;28;20040;-75
2023/07/11 07:41:58;;;;;;;6.38;1.60;;;22.60;74.70;;;;;;5036348;28;20104;-73
2023/07/11 07:44:23;;;;;;;3.22;1.45;;;22.70;74.70;;;;;;5035673;28;20435;-75
2023/07/11 07:46:49;;;;;;;8.02;2.05;;;22.70;74.40;;;;;;5052546;28;20443;-75
2023/07/11 07:49:15;;;;;;;8.27;1.77;;;22.80;74.30;;;;;;5036093;28;20385;-75
2023/07/11 07:51:41;;;;;;;3.67;1.20;;;22.90;74.00;;;;;;5052579;28;20036;-75
2023/07/11 07:54:06;;;;;;;5.30;1.50;;;22.90;73.50;;;;;;5052580;28;20037;-75
2023/07/11 07:56:34;;;;;;;5.68;1.58;;;23.00;73.10;;;;;;5052525;28;20087;-75
2023/07/11 07:59:00;;;;;;;4.78;1.30;;;23.00;73.10;;;;;;5036062;28;20432;-75
2023/07/11 08:01:25;;;;;;;3.83;1.10;;;23.10;72.90;;;;;;5052950;28;20132;-75
2023/07/11 08:03:51;;;;;;;3.90;1.27;;;23.20;72.70;;;;;;5035848;28;20104;-75
2023/07/11 08:06:18;;;;;;;4.18;1.27;;;23.20;72.30;;;;;;5052992;28;20385;-75
2023/07/11 08:08:46;;;;;;;4.28;1.40;;;23.30;71.70;;;;;;5053253;28;20107;-75
2023/07/11 08:11:12;;;;;;;4.15;1.10;;;23.30;71.40;;;;;;5052024;28;20060;-75
2023/07/11 08:13:38;;;;;;;3.70;1.25;;;23.40;71.20;;;;;;5052259;28;20037;-76
2023/07/11 08:16:04;;;;;;;3.42;1.15;;;23.40;70.60;;;;;;5052184;28;20033;-77
2023/07/11 08:18:30;;;;;;;7.22;1.30;;;23.50;70.40;;;;;;5035696;28;20032;-77
2023/07/11 08:20:55;;;;;;;4.38;1.30;;;23.60;70.40;;;;;;5053393;28;20033;-77
2023/07/11 08:23:21;;;;;;;3.80;1.13;;;23.70;70.00;;;;;;5052106;28;20481;-76
2023/07/11 08:25:52;;;;;;;4.50;1.35;;;23.70;69.50;;;;;;5052336;28;20472;-77
2023/07/11 08:28:18;;;;;;;6.90;1.05;;;23.80;69.10;;;;;;5053387;28;20041;-75
2023/07/11 08:30:43;;;;;;;5.18;1.00;;;23.90;68.60;;;;;;5035180;28;20119;-75
2023/07/11 08:33:09;;;;;;;4.55;1.17;;;23.90;68.20;;;;;;5052021;28;20025;-75
2023/07/11 08:35:34;;;;;;;4.10;0.95;;;24.00;68.10;;;;;;5053318;28;20037;-75
2023/07/11 08:38:02;;;;;;;6.53;1.40;;;24.00;68.00;;;;;;5053428;28;20037;-75
2023/07/11 08:40:33;;;;;;;4.47;1.30;;;24.10;68.00;;;;;;5035227;28;20116;-76
2023/07/11 08:43:04;;;;;;;4.55;1.10;;;24.20;67.80;;;;;;5053398;28;20021;-75
2023/07/11 08:45:38;;;;;;;5.13;1.05;;;24.30;67.40;;;;;;5051852;28;20017;-75
2023/07/11 08:48:19;;;;;;;;;;;24.40;67.20;;;;;;5053714;28;20100;-75
2023/07/11 08:51:20;;;;;;;3.25;0.90;;;24.50;67.10;;;;;;5051884;28;20323;-75
2023/07/11 08:54:12;;;;;;;6.88;0.85;;;24.50;66.90;;;;;;5052941;28;20377;-76
2023/07/11 08:56:41;;;;;;;9.25;1.17;;;24.60;66.70;;;;;;5054218;28;20036;-76
2023/07/11 08:59:32;;;;;;;3.63;0.90;;;24.60;66.50;;;;;;5057083;28;20102;-75
2023/07/11 09:02:09;;;;;;;6.97;0.90;;;24.70;66.20;;;;;;5046060;28;20072;-75
2023/07/11 09:04:49;;;;;;;4.60;0.70;;;24.80;65.90;;;;;;5057661;28;20024;-75
2023/07/11 09:07:29;;;;;;;5.07;1.02;;;25.00;65.60;;;;;;5056780;28;20531;-76
2023/07/11 09:09:56;;;;;;;4.78;1.27;;;25.00;65.40;;;;;;5056964;28;20029;-74
2023/07/11 09:12:39;;;;;;;7.88;1.17;;;25.10;65.30;;;;;;5055581;28;20036;-75
2023/07/11 09:15:20;;;;;;;4.65;1.05;;;25.20;64.90;;;;;;5056877;28;20028;-75
2023/07/11 09:17:58;;;;;;;6.38;0.82;;;25.20;64.50;;;;;;5055674;28;20028;-75
2023/07/11 09:20:42;;;;;;;4.10;1.13;;;25.40;64.50;;;;;;5056759;28;20032;-75
2023/07/11 09:23:25;;;;;;;4.35;0.90;;;25.40;64.20;;;;;;5055564;28;20021;-75
2023/07/11 09:25:51;;;;;;;5.23;1.00;;;25.60;64.00;;;;;;5055401;28;20393;-75
2023/07/11 09:28:24;;;;;;;4.57;1.05;;;25.60;63.90;;;;;;5055623;28;20428;-75
2023/07/11 09:30:57;;;;;;;4.97;1.10;;;25.70;63.80;;;;;;5055382;28;20017;-75
2023/07/11 09:33:29;;;;;;;5.63;1.00;;;25.70;63.20;;;;;;5055592;28;20385;-75
2023/07/11 09:35:56;;;;;;;5.00;1.15;;;25.80;62.90;;;;;;5056405;28;20453;-75
2023/07/11 09:38:44;;;;;;;3.58;0.88;;;25.90;62.70;;;;;;5055158;28;20382;-76
2023/07/11 09:41:34;;;;;;;5.63;1.15;;;25.90;62.50;;;;;;5056336;28;20020;-75
2023/07/11 09:44:02;;;;;;;5.80;0.80;;;26.00;62.10;;;;;;5055267;28;20029;-76
2023/07/11 09:46:27;;;;;;;3.47;0.80;;;26.00;61.80;;;;;;5055082;28;20032;-75
2023/07/11 09:48:57;;;;;;;9.23;0.95;;;26.20;62.00;;;;;;5054951;28;20033;-75
2023/07/11 09:51:48;;;;;;;2.80;0.80;;;26.20;61.70;;;;;;5056240;28;20025;-76
2023/07/11 09:54:25;;;;;;;3.83;0.80;;;26.30;61.00;;;;;;5056205;28;20029;-75
2023/07/11 09:56:51;;;;;;;5.03;0.80;;;26.40;60.90;;;;;;5054659;28;20025;-75
2023/07/11 09:59:20;;;;;;;4.70;1.10;;;26.40;60.80;;;;;;5055879;28;20358;-74
2023/07/11 10:01:55;;;;;;;3.20;0.85;;;26.50;60.70;;;;;;5053450;28;20037;-75
2023/07/11 10:04:25;;;;;;;3.80;0.90;;;26.50;60.60;;;;;;5053458;28;20049;-75
2023/07/11 10:07:01;;;;;;;3.63;0.98;;;26.60;60.70;;;;;;5053095;28;20477;-74
2023/07/11 10:09:48;;;;;;;4.20;0.88;;;26.70;60.50;;;;;;5053351;28;20029;-75
2023/07/11 10:12:15;;;;;;;3.75;0.80;;;26.70;60.20;;;;;;5053387;28;20119;-75
2023/07/11 10:14:44;;;;;;;4.50;0.90;;;26.80;60.30;;;;;;5053632;28;20551;-76
2023/07/11 10:17:20;;;;;;;4.30;0.82;;;26.90;60.20;;;;;;5053431;28;20140;-75
2023/07/11 10:19:48;;;;;;;6.57;0.80;;;26.90;60.10;;;;;;5053357;28;20032;-75
2023/07/11 10:22:20;;;;;;;4.43;1.05;;;27.00;60.20;;;;;;5053316;28;20515;-75
2023/07/11 10:24:48;;;;;;;2.90;0.70;;;27.00;60.10;;;;;;5054456;28;20060;-75
2023/07/11 10:27:23;;;;;;;2.92;0.70;;;27.10;60.10;;;;;;5053252;28;20119;-75
2023/07/11 10:29:57;;;;;;;4.03;1.08;;;27.10;59.90;;;;;;5054335;28;20036;-75
2023/07/11 10:32:43;;;;;;;5.95;1.30;;;27.20;59.90;;;;;;5054276;28;20028;-75
2023/07/11 10:35:14;;;;;;;2.60;0.85;;;27.40;59.70;;;;;;5054457;28;20029;-75
2023/07/11 10:37:45;;;;;;;3.75;0.85;;;27.40;59.40;;;;;;5054198;28;20035;-76
2023/07/11 10:40:19;;;;;;;6.05;1.10;;;27.60;59.10;;;;;;5052782;28;20033;-76
2023/07/11 10:42:51;;;;;;;5.13;1.27;;;27.70;58.80;;;;;;5052664;28;20473;-75
2023/07/11 10:45:44;;;;;;;5.55;1.00;;;27.70;58.40;;;;;;5054204;28;20095;-75
2023/07/11 10:48:15;;;;;;;3.92;0.90;;;27.80;58.00;;;;;;5053541;28;20033;-76
2023/07/11 10:50:47;;;;;;;7.13;1.20;;;27.90;57.80;;;;;;5054099;28;20033;-76
2023/07/11 10:53:40;;;;;;;7.05;1.00;;;28.10;57.50;;;;;;5054484;28;20034;-75
2023/07/11 10:56:13;;;;;;;4.40;1.10;;;28.30;56.90;;;;;;5054300;28;20021;-75
2023/07/11 10:58:39;;;;;;;3.67;1.15;;;28.30;56.80;;;;;;5053775;28;20025;-76
2023/07/11 11:01:36;;;;;;;4.60;1.10;;;28.40;56.70;;;;;;5013026;28;1150760;-76
2023/07/11 11:04:10;;;;;;;4.07;1.27;;;28.50;56.10;;;;;;5053828;28;20040;-75
2023/07/11 11:06:53;;;;;;;3.70;1.00;;;28.50;55.90;;;;;;5053393;28;20032;-76
2023/07/11 11:09:38;;;;;;;7.13;1.17;;;28.60;55.80;;;;;;5054673;28;20025;-76
2023/07/11 11:12:23;;;;;;;3.88;0.98;;;28.70;55.60;;;;;;5054818;28;20373;-75
2023/07/11 11:15:19;;;;;;;8.00;1.30;;;28.70;55.20;;;;;;5053338;28;20024;-76
2023/07/11 11:17:57;;;;;;;6.57;1.00;;;28.80;55.10;;;;;;5054332;28;20020;-75
2023/07/11 11:21:00;;;;;;;4.13;1.20;;;29.00;54.90;;;;;;5053459;28;20102;-76
2023/07/11 11:23:36;;;;;;;2.03;0.75;;;29.00;54.80;;;;;;5054544;28;20075;-75
2023/07/11 11:26:30;;;;;;;5.90;1.35;;;29.20;55.10;;;;;;5054454;28;20466;-76
2023/07/11 11:29:17;;;;;;;5.50;1.17;;;29.30;55.00;;;;;;5052953;28;20032;-77
2023/07/11 11:31:52;;;;;;;3.15;1.00;;;29.60;54.40;;;;;;5053005;28;20508;-76
2023/07/11 11:34:31;;;;;;;4.53;1.30;;;29.70;54.20;;;;;;5054461;28;20032;-76
2023/07/11 11:37:12;;;;;;;3.40;1.02;;;29.80;53.90;;;;;;5052948;28;20048;-76
2023/07/11 11:39:58;;;;;;;3.75;1.15;;;29.90;53.70;;;;;;5053970;28;20432;-81
2023/07/11 11:42:30;;;;;;;2.75;1.00;;;30.00;53.60;;;;;;5054372;28;20056;-80
2023/07/11 11:45:01;;;;;;;4.25;1.20;;;30.10;53.50;;;;;;5054314;28;20079;-80
2023/07/11 11:47:29;;;;;;;4.45;1.15;;;30.10;53.20;;;;;;5054826;28;20100;-81
2023/07/11 11:49:56;;;;;;;4.38;1.25;;;30.10;53.00;;;;;;5054603;28;20496;-80
2023/07/11 11:52:24;;;;;;;4.05;1.10;;;30.10;53.00;;;;;;5054072;28;20064;-80
2023/07/11 11:54:50;;;;;;;9.55;1.13;;;30.20;53.70;;;;;;5053977;28;20031;-80
2023/07/11 11:57:29;;;;;;;5.45;1.25;;;30.30;53.00;;;;;;5053160;28;20044;-78
2023/07/11 11:59:55;;;;;;;4.50;1.10;;;30.30;52.80;;;;;;5054154;28;20058;-80
2023/07/11 12:02:32;;;;;;;6.35;1.10;;;30.40;52.80;;;;;;5052751;28;20112;-80
2023/07/11 12:05:13;;;;;;;3.35;1.10;;;30.40;52.60;;;;;;5052439;28;20021;-80
2023/07/11 12:07:40;;;;;;;3.78;1.00;;;30.50;52.70;;;;;;5053940;28;20021;-80
2023/07/11 12:10:22;;;;;;;3.97;1.17;;;30.50;52.70;;;;;;5036008;28;20384;-80
2023/07/11 12:13:17;;;;;;;5.07;0.93;;;30.60;52.80;;;;;;5052723;28;20496;-81
2023/07/11 12:15:47;;;;;;;4.47;1.08;;;30.60;52.70;;;;;;5052392;28;20056;-80
2023/07/11 12:18:24;;;;;;;4.10;1.27;;;30.70;52.60;;;;;;5054007;28;20024;-80
2023/07/11 12:21:16;;;;;;;4.10;1.33;;;30.80;52.40;;;;;;5052785;28;20354;-81
2023/07/11 12:23:51;;;;;;;5.50;1.30;;;30.80;51.90;;;;;;5055245;28;20055;-82
2023/07/11 12:26:23;;;;;;;2.90;0.70;;;30.90;52.00;;;;;;5053619;28;20021;-80
2023/07/11 12:28:50;;;;;;;3.73;1.10;;;31.00;52.10;;;;;;5054165;28;20035;-80
2023/07/11 12:31:22;;;;;;;4.60;0.90;;;31.10;52.20;;;;;;5052712;28;20021;-79
2023/07/11 12:34:02;;;;;;;4.10;1.08;;;31.20;52.00;;;;;;5052548;28;20108;-80
2023/07/11 12:36:34;;;;;;;4.10;1.00;;;31.40;51.50;;;;;;5052305;28;20056;-79
2023/07/11 12:39:30;;;;;;;3.33;1.10;;;31.50;51.50;;;;;;5053566;28;20110;-79
2023/07/11 12:42:17;;;;;;;3.38;1.10;;;31.50;51.40;;;;;;5053868;28;20060;-80
2023/07/11 12:44:44;;;;;;;6.90;1.20;;;31.50;51.00;;;;;;5052677;28;20068;-81
2023/07/11 12:47:16;;;;;;;3.15;1.02;;;31.60;51.10;;;;;;5052428;28;20087;-80
2023/07/11 12:49:43;;;;;;;7.27;1.63;;;31.70;50.70;;;;;;5053679;28;20021;-81
2023/07/11 12:52:12;;;;;;;5.97;1.20;;;31.90;50.50;;;;;;5053898;28;20279;-80
2023/07/11 12:54:39;;;;;;;4.40;1.15;;;32.10;50.40;;;;;;5035504;28;20064;-82
2023/07/11 12:57:14;;;;;;;4.60;1.00;;;32.40;50.20;;;;;;5052452;28;20127;-81
2023/07/11 12:59:40;;;;;;;4.78;1.38;;;32.70;49.90;;;;;;5052595;28;20083;-81